sensor_id;sensor_type;location;lat;lon;timestamp;P1;durP1;ratioP1;P2;durP2;ratioP2
71048;SDS011;58704;53.358;-6.238;2022-09-09T00:02:00;15.70;;;6.53;;
71048;SDS011;58704;53.358;-6.238;2022-09-09T00:04:33;15.77;;;6.20;;
71048;SDS011;58704;53.358;-6.238;2022-09-09T00:15:14;14.15;;;6.45;;
71048;SDS011;58704;53.358;-6.238;2022-09-09T00:20:32;10.75;;;5.68;;
71048;SDS011;58704;53.358;-6.238;2022-09-09T00:23:06;13.40;;;6.37;;
71048;SDS011;58704;53.358;-6.238;2022-09-09T00:28:25;10.35;;;5.10;;
71048;SDS011;58704;53.358;-6.238;2022-09-09T00:30:51;10.82;;;5.57;;
71048;SDS011;58704;53.358;-6.238;2022-09-09T00:33:19;9.95;;;5.28;;
71048;SDS011;58704;53.358;-6.238;2022-09-09T00:35:48;11.70;;;5.33;;
71048;SDS011;58704;53.358;-6.238;2022-09-09T00:40:48;11.27;;;5.40;;
71048;SDS011;58704;53.358;-6.238;2022-09-09T00:48:27;10.18;;;5.60;;
71048;SDS011;58704;53.358;-6.238;2022-09-09T00:51:23;11.37;;;6.07;;
71048;SDS011;58704;53.358;-6.238;2022-09-09T01:05:46;9.60;;;6.07;;
71048;SDS011;58704;53.358;-6.238;2022-09-09T01:10:53;14.30;;;6.70;;
71048;SDS011;58704;53.358;-6.238;2022-09-09T01:13:29;9.15;;;5.90;;
71048;SDS011;58704;53.358;-6.238;2022-09-09T01:15:58;10.45;;;6.13;;
71048;SDS011;58704;53.358;-6.238;2022-09-09T01:18:29;11.90;;;6.10;;
71048;SDS011;58704;53.358;-6.238;2022-09-09T01:26:51;12.95;;;6.25;;
71048;SDS011;58704;53.358;-6.238;2022-09-09T01:29:18;9.43;;;5.97;;
71048;SDS011;58704;53.358;-6.238;2022-09-09T01:31:52;9.77;;;5.50;;
71048;SDS011;58704;53.358;-6.238;2022-09-09T01:34:25;8.82;;;5.30;;
71048;SDS011;58704;53.358;-6.238;2022-09-09T01:36:57;10.23;;;5.78;;
71048;SDS011;58704;53.358;-6.238;2022-09-09T01:39:29;11.32;;;5.70;;
71048;SDS011;58704;53.358;-6.238;2022-09-09T01:41:55;15.00;;;6.20;;
71048;SDS011;58704;53.358;-6.238;2022-09-09T01:44:21;10.65;;;5.60;;
71048;SDS011;58704;53.358;-6.238;2022-09-09T01:46:47;9.68;;;5.90;;
71048;SDS011;58704;53.358;-6.238;2022-09-09T01:49:12;9.43;;;5.03;;
71048;SDS011;58704;53.358;-6.238;2022-09-09T01:51:38;13.30;;;5.70;;
71048;SDS011;58704;53.358;-6.238;2022-09-09T01:54:04;10.48;;;5.25;;
71048;SDS011;58704;53.358;-6.238;2022-09-09T01:57:15;8.98;;;5.22;;
71048;SDS011;58704;53.358;-6.238;2022-09-09T01:59:32;9.52;;;5.65;;
71048;SDS011;58704;53.358;-6.238;2022-09-09T02:07:43;12.40;;;5.70;;
71048;SDS011;58704;53.358;-6.238;2022-09-09T02:13:10;9.07;;;5.25;;
71048;SDS011;58704;53.358;-6.238;2022-09-09T02:16:12;8.18;;;4.95;;
71048;SDS011;58704;53.358;-6.238;2022-09-09T02:18:50;8.63;;;4.50;;
71048;SDS011;58704;53.358;-6.238;2022-09-09T02:21:19;10.25;;;4.97;;
71048;SDS011;58704;53.358;-6.238;2022-09-09T02:23:46;14.82;;;5.53;;
71048;SDS011;58704;53.358;-6.238;2022-09-09T02:26:13;8.52;;;5.47;;
71048;SDS011;58704;53.358;-6.238;2022-09-09T02:28:44;8.67;;;4.70;;
71048;SDS011;58704;53.358;-6.238;2022-09-09T02:31:10;9.35;;;4.90;;
71048;SDS011;58704;53.358;-6.238;2022-09-09T02:33:37;10.32;;;4.70;;
71048;SDS011;58704;53.358;-6.238;2022-09-09T02:36:07;10.52;;;4.65;;
71048;SDS011;58704;53.358;-6.238;2022-09-09T02:38:35;8.97;;;5.40;;
71048;SDS011;58704;53.358;-6.238;2022-09-09T02:41:02;6.30;;;4.60;;
71048;SDS011;58704;53.358;-6.238;2022-09-09T02:43:33;7.35;;;4.30;;
71048;SDS011;58704;53.358;-6.238;2022-09-09T02:49:09;10.18;;;4.45;;
71048;SDS011;58704;53.358;-6.238;2022-09-09T02:51:52;9.83;;;4.47;;
71048;SDS011;58704;53.358;-6.238;2022-09-09T02:54:42;8.55;;;4.28;;
71048;SDS011;58704;53.358;-6.238;2022-09-09T02:57:16;7.55;;;4.90;;
71048;SDS011;58704;53.358;-6.238;2022-09-09T02:59:43;9.93;;;4.70;;
71048;SDS011;58704;53.358;-6.238;2022-09-09T03:02:09;10.02;;;4.80;;
71048;SDS011;58704;53.358;-6.238;2022-09-09T03:04:36;6.13;;;4.40;;
71048;SDS011;58704;53.358;-6.238;2022-09-09T03:07:02;9.07;;;4.45;;
71048;SDS011;58704;53.358;-6.238;2022-09-09T03:09:28;7.68;;;4.82;;
71048;SDS011;58704;53.358;-6.238;2022-09-09T03:11:54;8.53;;;4.40;;
71048;SDS011;58704;53.358;-6.238;2022-09-09T03:14:20;9.18;;;4.65;;
71048;SDS011;58704;53.358;-6.238;2022-09-09T03:16:49;8.13;;;4.95;;
71048;SDS011;58704;53.358;-6.238;2022-09-09T03:19:15;9.70;;;4.32;;
71048;SDS011;58704;53.358;-6.238;2022-09-09T03:21:40;7.97;;;4.33;;
71048;SDS011;58704;53.358;-6.238;2022-09-09T03:24:06;8.57;;;4.50;;
71048;SDS011;58704;53.358;-6.238;2022-09-09T03:26:31;7.10;;;3.73;;
71048;SDS011;58704;53.358;-6.238;2022-09-09T03:28:57;12.83;;;4.17;;
71048;SDS011;58704;53.358;-6.238;2022-09-09T03:31:25;10.65;;;4.47;;
71048;SDS011;58704;53.358;-6.238;2022-09-09T03:33:51;10.35;;;4.43;;
71048;SDS011;58704;53.358;-6.238;2022-09-09T03:36:16;9.77;;;4.87;;
71048;SDS011;58704;53.358;-6.238;2022-09-09T03:38:42;14.03;;;5.30;;
71048;SDS011;58704;53.358;-6.238;2022-09-09T03:41:07;8.38;;;4.80;;
71048;SDS011;58704;53.358;-6.238;2022-09-09T03:43:33;9.57;;;4.70;;
71048;SDS011;58704;53.358;-6.238;2022-09-09T03:45:59;7.80;;;4.55;;
71048;SDS011;58704;53.358;-6.238;2022-09-09T03:48:25;9.75;;;4.10;;
71048;SDS011;58704;53.358;-6.238;2022-09-09T03:50:53;6.22;;;4.70;;
71048;SDS011;58704;53.358;-6.238;2022-09-09T03:53:20;7.97;;;4.37;;
71048;SDS011;58704;53.358;-6.238;2022-09-09T03:55:49;9.10;;;4.82;;
71048;SDS011;58704;53.358;-6.238;2022-09-09T03:58:17;8.90;;;4.70;;
71048;SDS011;58704;53.358;-6.238;2022-09-09T04:00:56;8.10;;;4.30;;
71048;SDS011;58704;53.358;-6.238;2022-09-09T04:03:24;7.50;;;4.30;;
71048;SDS011;58704;53.358;-6.238;2022-09-09T04:05:51;10.50;;;4.70;;
71048;SDS011;58704;53.358;-6.238;2022-09-09T04:08:18;7.95;;;4.38;;
71048;SDS011;58704;53.358;-6.238;2022-09-09T04:11:09;5.57;;;4.28;;
71048;SDS011;58704;53.358;-6.238;2022-09-09T04:13:37;6.97;;;4.32;;
71048;SDS011;58704;53.358;-6.238;2022-09-09T04:16:07;8.32;;;3.90;;
71048;SDS011;58704;53.358;-6.238;2022-09-09T04:18:33;11.57;;;4.20;;
71048;SDS011;58704;53.358;-6.238;2022-09-09T04:20:59;5.53;;;4.40;;
71048;SDS011;58704;53.358;-6.238;2022-09-09T04:23:25;7.37;;;4.00;;
71048;SDS011;58704;53.358;-6.238;2022-09-09T08:03:18;4.65;;;3.38;;
71048;SDS011;58704;53.358;-6.238;2022-09-09T08:05:45;5.23;;;3.10;;
71048;SDS011;58704;53.358;-6.238;2022-09-09T08:08:10;4.20;;;2.63;;
71048;SDS011;58704;53.358;-6.238;2022-09-09T08:10:36;3.37;;;3.03;;
71048;SDS011;58704;53.358;-6.238;2022-09-09T08:13:04;4.78;;;3.00;;
71048;SDS011;58704;53.358;-6.238;2022-09-09T08:15:31;4.68;;;2.50;;
71048;SDS011;58704;53.358;-6.238;2022-09-09T08:18:06;4.20;;;2.40;;
71048;SDS011;58704;53.358;-6.238;2022-09-09T08:20:35;4.55;;;2.70;;
71048;SDS011;58704;53.358;-6.238;2022-09-09T08:23:07;2.28;;;2.00;;
71048;SDS011;58704;53.358;-6.238;2022-09-09T08:25:33;3.17;;;1.95;;
71048;SDS011;58704;53.358;-6.238;2022-09-09T08:27:59;2.30;;;1.20;;
71048;SDS011;58704;53.358;-6.238;2022-09-09T08:30:28;2.28;;;1.50;;
71048;SDS011;58704;53.358;-6.238;2022-09-09T08:32:58;2.88;;;1.50;;
71048;SDS011;58704;53.358;-6.238;2022-09-09T08:35:25;2.63;;;1.20;;
71048;SDS011;58704;53.358;-6.238;2022-09-09T08:37:53;2.47;;;1.55;;
71048;SDS011;58704;53.358;-6.238;2022-09-09T08:40:21;3.67;;;1.67;;
71048;SDS011;58704;53.358;-6.238;2022-09-09T08:42:50;4.72;;;1.80;;
71048;SDS011;58704;53.358;-6.238;2022-09-09T08:45:19;10.85;;;1.90;;
71048;SDS011;58704;53.358;-6.238;2022-09-09T08:47:55;4.35;;;1.95;;
71048;SDS011;58704;53.358;-6.238;2022-09-09T08:50:36;2.05;;;1.40;;
71048;SDS011;58704;53.358;-6.238;2022-09-09T08:53:26;1.73;;;1.23;;
71048;SDS011;58704;53.358;-6.238;2022-09-09T08:55:56;3.72;;;1.23;;
71048;SDS011;58704;53.358;-6.238;2022-09-09T08:58:29;6.47;;;1.90;;
71048;SDS011;58704;53.358;-6.238;2022-09-09T09:06:55;2.03;;;1.23;;
71048;SDS011;58704;53.358;-6.238;2022-09-09T09:11:55;2.60;;;1.40;;
71048;SDS011;58704;53.358;-6.238;2022-09-09T09:14:29;2.22;;;1.10;;
71048;SDS011;58704;53.358;-6.238;2022-09-09T09:19:29;2.95;;;1.27;;
71048;SDS011;58704;53.358;-6.238;2022-09-09T09:24:52;5.17;;;1.60;;
71048;SDS011;58704;53.358;-6.238;2022-09-09T09:27:26;2.55;;;1.30;;
71048;SDS011;58704;53.358;-6.238;2022-09-09T09:30:01;2.40;;;1.30;;
71048;SDS011;58704;53.358;-6.238;2022-09-09T09:35:39;2.40;;;1.48;;
71048;SDS011;58704;53.358;-6.238;2022-09-09T09:41:00;4.18;;;1.42;;
71048;SDS011;58704;53.358;-6.238;2022-09-09T09:43:32;3.43;;;1.43;;
71048;SDS011;58704;53.358;-6.238;2022-09-09T09:45:59;3.30;;;1.45;;
71048;SDS011;58704;53.358;-6.238;2022-09-09T09:48:26;3.33;;;1.60;;
71048;SDS011;58704;53.358;-6.238;2022-09-09T09:55:55;3.63;;;1.70;;
71048;SDS011;58704;53.358;-6.238;2022-09-09T09:58:23;2.00;;;1.80;;
71048;SDS011;58704;53.358;-6.238;2022-09-09T10:00:50;1.52;;;1.35;;
71048;SDS011;58704;53.358;-6.238;2022-09-09T10:03:22;3.38;;;1.55;;
71048;SDS011;58704;53.358;-6.238;2022-09-09T10:05:55;4.97;;;1.63;;
71048;SDS011;58704;53.358;-6.238;2022-09-09T10:08:26;3.92;;;1.70;;
71048;SDS011;58704;53.358;-6.238;2022-09-09T10:11:05;2.63;;;1.57;;
71048;SDS011;58704;53.358;-6.238;2022-09-09T10:14:03;2.47;;;1.77;;
71048;SDS011;58704;53.358;-6.238;2022-09-09T10:17:02;5.32;;;2.28;;
71048;SDS011;58704;53.358;-6.238;2022-09-09T10:19:58;4.53;;;2.28;;
71048;SDS011;58704;53.358;-6.238;2022-09-09T10:22:27;10.10;;;2.00;;
71048;SDS011;58704;53.358;-6.238;2022-09-09T10:30:22;4.22;;;2.13;;
71048;SDS011;58704;53.358;-6.238;2022-09-09T10:38:17;5.60;;;2.17;;
71048;SDS011;58704;53.358;-6.238;2022-09-09T10:46:15;2.90;;;1.83;;
71048;SDS011;58704;53.358;-6.238;2022-09-09T10:51:23;3.07;;;1.87;;
71048;SDS011;58704;53.358;-6.238;2022-09-09T10:54:13;4.03;;;1.77;;
71048;SDS011;58704;53.358;-6.238;2022-09-09T10:56:58;2.95;;;2.00;;
71048;SDS011;58704;53.358;-6.238;2022-09-09T10:59:33;4.10;;;1.70;;
71048;SDS011;58704;53.358;-6.238;2022-09-09T11:02:12;4.15;;;1.75;;
71048;SDS011;58704;53.358;-6.238;2022-09-09T11:04:50;2.63;;;1.63;;
71048;SDS011;58704;53.358;-6.238;2022-09-09T11:10:26;3.67;;;1.83;;
71048;SDS011;58704;53.358;-6.238;2022-09-09T11:13:21;1.98;;;1.50;;
71048;SDS011;58704;53.358;-6.238;2022-09-09T11:16:00;2.55;;;1.65;;
71048;SDS011;58704;53.358;-6.238;2022-09-09T11:18:41;2.33;;;1.50;;
71048;SDS011;58704;53.358;-6.238;2022-09-09T11:21:13;4.15;;;1.38;;
71048;SDS011;58704;53.358;-6.238;2022-09-09T11:23:45;4.20;;;1.75;;
71048;SDS011;58704;53.358;-6.238;2022-09-09T11:26:29;4.78;;;1.77;;
71048;SDS011;58704;53.358;-6.238;2022-09-09T11:31:55;5.23;;;2.30;;
71048;SDS011;58704;53.358;-6.238;2022-09-09T11:34:44;5.20;;;1.90;;
71048;SDS011;58704;53.358;-6.238;2022-09-09T11:42:23;2.40;;;1.83;;
71048;SDS011;58704;53.358;-6.238;2022-09-09T11:44:49;2.35;;;1.70;;
71048;SDS011;58704;53.358;-6.238;2022-09-09T11:52:47;3.40;;;1.80;;
71048;SDS011;58704;53.358;-6.238;2022-09-09T11:55:28;2.92;;;1.70;;
71048;SDS011;58704;53.358;-6.238;2022-09-09T11:58:04;5.30;;;1.65;;
71048;SDS011;58704;53.358;-6.238;2022-09-09T12:00:35;2.28;;;1.52;;
71048;SDS011;58704;53.358;-6.238;2022-09-09T12:08:58;4.85;;;2.08;;
71048;SDS011;58704;53.358;-6.238;2022-09-09T12:11:37;2.15;;;1.60;;
71048;SDS011;58704;53.358;-6.238;2022-09-09T12:14:20;1.65;;;1.45;;
71048;SDS011;58704;53.358;-6.238;2022-09-09T12:16:48;3.63;;;1.70;;
71048;SDS011;58704;53.358;-6.238;2022-09-09T12:19:21;3.38;;;1.63;;
71048;SDS011;58704;53.358;-6.238;2022-09-09T12:22:05;3.75;;;1.80;;
71048;SDS011;58704;53.358;-6.238;2022-09-09T12:27:28;5.82;;;2.60;;
71048;SDS011;58704;53.358;-6.238;2022-09-09T12:32:28;3.50;;;2.30;;
71048;SDS011;58704;53.358;-6.238;2022-09-09T12:34:55;4.15;;;2.20;;
71048;SDS011;58704;53.358;-6.238;2022-09-09T12:40:26;2.88;;;2.00;;
71048;SDS011;58704;53.358;-6.238;2022-09-09T12:42:56;4.43;;;2.40;;
71048;SDS011;58704;53.358;-6.238;2022-09-09T12:45:23;5.20;;;2.03;;
71048;SDS011;58704;53.358;-6.238;2022-09-09T12:48:00;3.20;;;2.03;;
71048;SDS011;58704;53.358;-6.238;2022-09-09T12:50:28;3.93;;;1.93;;
71048;SDS011;58704;53.358;-6.238;2022-09-09T12:53:10;3.08;;;2.10;;
71048;SDS011;58704;53.358;-6.238;2022-09-09T12:55:51;2.45;;;1.80;;
71048;SDS011;58704;53.358;-6.238;2022-09-09T12:58:18;3.55;;;1.85;;
71048;SDS011;58704;53.358;-6.238;2022-09-09T13:00:54;2.53;;;1.60;;
71048;SDS011;58704;53.358;-6.238;2022-09-09T13:03:25;4.50;;;2.10;;
71048;SDS011;58704;53.358;-6.238;2022-09-09T13:05:51;3.40;;;2.25;;
71048;SDS011;58704;53.358;-6.238;2022-09-09T13:08:18;3.15;;;2.08;;
71048;SDS011;58704;53.358;-6.238;2022-09-09T13:11:01;2.88;;;2.00;;
71048;SDS011;58704;53.358;-6.238;2022-09-09T13:16:03;6.80;;;1.90;;
71048;SDS011;58704;53.358;-6.238;2022-09-09T13:18:33;3.22;;;2.00;;
71048;SDS011;58704;53.358;-6.238;2022-09-09T13:20:59;3.38;;;1.70;;
71048;SDS011;58704;53.358;-6.238;2022-09-09T13:23:32;5.75;;;1.77;;
71048;SDS011;58704;53.358;-6.238;2022-09-09T13:26:00;4.10;;;1.73;;
71048;SDS011;58704;53.358;-6.238;2022-09-09T13:28:29;3.97;;;2.17;;
71048;SDS011;58704;53.358;-6.238;2022-09-09T13:31:05;4.47;;;2.20;;
71048;SDS011;58704;53.358;-6.238;2022-09-09T13:33:43;3.55;;;1.92;;
71048;SDS011;58704;53.358;-6.238;2022-09-09T13:36:12;2.77;;;1.87;;
71048;SDS011;58704;53.358;-6.238;2022-09-09T13:39:01;2.22;;;1.95;;
71048;SDS011;58704;53.358;-6.238;2022-09-09T13:41:28;4.43;;;2.13;;
71048;SDS011;58704;53.358;-6.238;2022-09-09T13:43:55;6.47;;;2.28;;
71048;SDS011;58704;53.358;-6.238;2022-09-09T13:46:40;2.70;;;1.80;;
71048;SDS011;58704;53.358;-6.238;2022-09-09T13:54:10;3.65;;;2.45;;
71048;SDS011;58704;53.358;-6.238;2022-09-09T13:56:41;6.13;;;2.75;;
71048;SDS011;58704;53.358;-6.238;2022-09-09T13:59:11;7.07;;;3.53;;
71048;SDS011;58704;53.358;-6.238;2022-09-09T14:01:38;4.63;;;3.33;;
71048;SDS011;58704;53.358;-6.238;2022-09-09T14:04:06;4.15;;;3.40;;
71048;SDS011;58704;53.358;-6.238;2022-09-09T14:06:35;4.68;;;3.85;;
71048;SDS011;58704;53.358;-6.238;2022-09-09T14:09:07;11.30;;;3.60;;
71048;SDS011;58704;53.358;-6.238;2022-09-09T14:11:36;6.17;;;3.57;;
71048;SDS011;58704;53.358;-6.238;2022-09-09T14:14:15;6.78;;;3.88;;
71048;SDS011;58704;53.358;-6.238;2022-09-09T14:25:50;3.83;;;3.43;;
71048;SDS011;58704;53.358;-6.238;2022-09-09T14:28:16;4.57;;;3.17;;
71048;SDS011;58704;53.358;-6.238;2022-09-09T14:30:42;4.07;;;2.70;;
71048;SDS011;58704;53.358;-6.238;2022-09-09T14:33:10;5.67;;;3.13;;
71048;SDS011;58704;53.358;-6.238;2022-09-09T14:35:36;3.10;;;2.80;;
71048;SDS011;58704;53.358;-6.238;2022-09-09T14:38:03;4.82;;;2.63;;
71048;SDS011;58704;53.358;-6.238;2022-09-09T14:40:30;3.25;;;2.88;;
71048;SDS011;58704;53.358;-6.238;2022-09-09T14:42:55;3.87;;;3.47;;
71048;SDS011;58704;53.358;-6.238;2022-09-09T14:45:22;5.30;;;3.75;;
71048;SDS011;58704;53.358;-6.238;2022-09-09T14:47:51;6.32;;;3.75;;
71048;SDS011;58704;53.358;-6.238;2022-09-09T14:50:17;4.40;;;3.10;;
71048;SDS011;58704;53.358;-6.238;2022-09-09T14:52:51;1.85;;;1.70;;
71048;SDS011;58704;53.358;-6.238;2022-09-09T14:55:17;2.20;;;1.77;;
71048;SDS011;58704;53.358;-6.238;2022-09-09T14:57:46;2.03;;;1.80;;
71048;SDS011;58704;53.358;-6.238;2022-09-09T15:00:12;3.55;;;2.05;;
71048;SDS011;58704;53.358;-6.238;2022-09-09T16:17:38;1.77;;;1.40;;
71048;SDS011;58704;53.358;-6.238;2022-09-09T16:20:07;3.10;;;1.30;;
71048;SDS011;58704;53.358;-6.238;2022-09-09T16:22:33;2.53;;;1.40;;
71048;SDS011;58704;53.358;-6.238;2022-09-09T16:24:59;3.83;;;1.77;;
71048;SDS011;58704;53.358;-6.238;2022-09-09T16:27:24;4.13;;;1.73;;
71048;SDS011;58704;53.358;-6.238;2022-09-09T16:29:50;3.87;;;2.00;;
71048;SDS011;58704;53.358;-6.238;2022-09-09T16:32:16;3.83;;;2.00;;
71048;SDS011;58704;53.358;-6.238;2022-09-09T16:34:41;3.93;;;2.00;;
71048;SDS011;58704;53.358;-6.238;2022-09-09T16:37:08;5.13;;;1.80;;
71048;SDS011;58704;53.358;-6.238;2022-09-09T16:39:34;4.72;;;2.15;;
71048;SDS011;58704;53.358;-6.238;2022-09-09T16:41:59;10.67;;;5.83;;
71048;SDS011;58704;53.358;-6.238;2022-09-09T16:44:25;13.53;;;7.30;;
71048;SDS011;58704;53.358;-6.238;2022-09-09T16:46:51;8.00;;;5.22;;
71048;SDS011;58704;53.358;-6.238;2022-09-09T16:49:19;4.57;;;2.58;;
71048;SDS011;58704;53.358;-6.238;2022-09-09T16:51:49;4.47;;;2.40;;
71048;SDS011;58704;53.358;-6.238;2022-09-09T16:54:18;4.63;;;1.70;;
71048;SDS011;58704;53.358;-6.238;2022-09-09T16:56:44;2.80;;;1.77;;
71048;SDS011;58704;53.358;-6.238;2022-09-09T16:59:14;3.28;;;2.22;;
71048;SDS011;58704;53.358;-6.238;2022-09-09T17:01:41;7.32;;;2.17;;
71048;SDS011;58704;53.358;-6.238;2022-09-09T17:04:29;3.33;;;2.05;;
71048;SDS011;58704;53.358;-6.238;2022-09-09T17:06:55;11.00;;;3.07;;
71048;SDS011;58704;53.358;-6.238;2022-09-09T17:09:22;11.27;;;4.43;;
71048;SDS011;58704;53.358;-6.238;2022-09-09T17:11:48;4.82;;;2.20;;
71048;SDS011;58704;53.358;-6.238;2022-09-09T17:14:17;4.63;;;2.40;;
71048;SDS011;58704;53.358;-6.238;2022-09-09T17:16:43;4.75;;;2.60;;
71048;SDS011;58704;53.358;-6.238;2022-09-09T17:19:09;5.00;;;2.40;;
71048;SDS011;58704;53.358;-6.238;2022-09-09T17:21:35;7.53;;;2.47;;
71048;SDS011;58704;53.358;-6.238;2022-09-09T17:24:01;4.88;;;1.70;;
71048;SDS011;58704;53.358;-6.238;2022-09-09T17:26:27;3.43;;;1.70;;
71048;SDS011;58704;53.358;-6.238;2022-09-09T17:28:54;3.65;;;1.70;;
71048;SDS011;58704;53.358;-6.238;2022-09-09T17:31:23;4.15;;;1.70;;
71048;SDS011;58704;53.358;-6.238;2022-09-09T17:33:50;3.17;;;2.17;;
71048;SDS011;58704;53.358;-6.238;2022-09-09T17:36:18;3.92;;;1.70;;
71048;SDS011;58704;53.358;-6.238;2022-09-09T17:38:51;6.05;;;2.00;;
71048;SDS011;58704;53.358;-6.238;2022-09-09T17:41:18;4.53;;;1.38;;
71048;SDS011;58704;53.358;-6.238;2022-09-09T17:43:49;4.38;;;1.92;;
71048;SDS011;58704;53.358;-6.238;2022-09-09T17:46:24;5.30;;;2.00;;
71048;SDS011;58704;53.358;-6.238;2022-09-09T17:49:00;2.03;;;1.23;;
71048;SDS011;58704;53.358;-6.238;2022-09-09T17:51:28;3.05;;;1.30;;
71048;SDS011;58704;53.358;-6.238;2022-09-09T17:53:58;2.28;;;1.85;;
71048;SDS011;58704;53.358;-6.238;2022-09-09T17:56:25;4.75;;;1.50;;
71048;SDS011;58704;53.358;-6.238;2022-09-09T17:58:53;4.23;;;1.60;;
71048;SDS011;58704;53.358;-6.238;2022-09-09T18:01:23;5.97;;;1.88;;
71048;SDS011;58704;53.358;-6.238;2022-09-09T18:03:51;3.35;;;1.70;;
71048;SDS011;58704;53.358;-6.238;2022-09-09T18:06:19;5.18;;;1.90;;
71048;SDS011;58704;53.358;-6.238;2022-09-09T18:08:49;5.27;;;1.90;;
71048;SDS011;58704;53.358;-6.238;2022-09-09T18:11:16;6.05;;;1.27;;
71048;SDS011;58704;53.358;-6.238;2022-09-09T18:13:43;4.57;;;1.52;;
71048;SDS011;58704;53.358;-6.238;2022-09-09T18:16:13;4.28;;;1.85;;
71048;SDS011;58704;53.358;-6.238;2022-09-09T18:18:38;10.40;;;4.83;;
71048;SDS011;58704;53.358;-6.238;2022-09-09T18:21:05;3.50;;;1.60;;
71048;SDS011;58704;53.358;-6.238;2022-09-09T18:23:35;5.82;;;2.58;;
71048;SDS011;58704;53.358;-6.238;2022-09-09T18:26:09;4.95;;;2.30;;
71048;SDS011;58704;53.358;-6.238;2022-09-09T18:28:36;8.13;;;3.20;;
71048;SDS011;58704;53.358;-6.238;2022-09-09T18:31:06;10.17;;;4.00;;
71048;SDS011;58704;53.358;-6.238;2022-09-09T18:33:36;8.82;;;2.70;;
71048;SDS011;58704;53.358;-6.238;2022-09-09T18:36:03;11.55;;;5.28;;
71048;SDS011;58704;53.358;-6.238;2022-09-09T18:38:31;8.68;;;3.85;;
71048;SDS011;58704;53.358;-6.238;2022-09-09T18:40:59;7.30;;;2.88;;
71048;SDS011;58704;53.358;-6.238;2022-09-09T18:43:27;6.00;;;2.27;;
71048;SDS011;58704;53.358;-6.238;2022-09-09T18:45:53;8.48;;;2.97;;
71048;SDS011;58704;53.358;-6.238;2022-09-09T18:48:18;5.60;;;2.30;;
71048;SDS011;58704;53.358;-6.238;2022-09-09T18:50:43;5.67;;;1.87;;
71048;SDS011;58704;53.358;-6.238;2022-09-09T18:53:09;5.43;;;1.53;;
71048;SDS011;58704;53.358;-6.238;2022-09-09T18:55:35;6.93;;;1.83;;
71048;SDS011;58704;53.358;-6.238;2022-09-09T18:58:01;6.50;;;1.70;;
71048;SDS011;58704;53.358;-6.238;2022-09-09T19:00:27;9.88;;;1.63;;
71048;SDS011;58704;53.358;-6.238;2022-09-09T19:02:53;5.75;;;1.75;;
71048;SDS011;58704;53.358;-6.238;2022-09-09T19:05:18;6.03;;;1.53;;
71048;SDS011;58704;53.358;-6.238;2022-09-09T19:07:44;6.10;;;1.60;;
71048;SDS011;58704;53.358;-6.238;2022-09-09T19:10:09;3.93;;;1.97;;
71048;SDS011;58704;53.358;-6.238;2022-09-09T19:12:35;7.03;;;1.80;;
71048;SDS011;58704;53.358;-6.238;2022-09-09T19:15:00;7.00;;;1.83;;
71048;SDS011;58704;53.358;-6.238;2022-09-09T19:17:26;3.40;;;1.50;;
71048;SDS011;58704;53.358;-6.238;2022-09-09T19:19:52;4.70;;;1.60;;
71048;SDS011;58704;53.358;-6.238;2022-09-09T19:22:18;5.30;;;1.45;;
71048;SDS011;58704;53.358;-6.238;2022-09-09T19:24:44;4.70;;;1.57;;
71048;SDS011;58704;53.358;-6.238;2022-09-09T19:27:09;3.50;;;1.60;;
71048;SDS011;58704;53.358;-6.238;2022-09-09T19:29:35;6.60;;;1.50;;
71048;SDS011;58704;53.358;-6.238;2022-09-09T19:32:03;4.25;;;2.28;;
71048;SDS011;58704;53.358;-6.238;2022-09-09T19:34:29;8.10;;;2.13;;
71048;SDS011;58704;53.358;-6.238;2022-09-09T19:36:54;5.33;;;1.80;;
71048;SDS011;58704;53.358;-6.238;2022-09-09T19:39:20;5.40;;;1.77;;
71048;SDS011;58704;53.358;-6.238;2022-09-09T19:41:46;7.37;;;1.80;;
71048;SDS011;58704;53.358;-6.238;2022-09-09T19:44:12;4.63;;;1.70;;
71048;SDS011;58704;53.358;-6.238;2022-09-09T19:46:40;5.43;;;1.52;;
71048;SDS011;58704;53.358;-6.238;2022-09-09T19:49:10;6.15;;;1.77;;
71048;SDS011;58704;53.358;-6.238;2022-09-09T19:51:36;6.50;;;2.50;;
71048;SDS011;58704;53.358;-6.238;2022-09-09T19:54:02;6.87;;;2.57;;
71048;SDS011;58704;53.358;-6.238;2022-09-09T19:56:30;6.55;;;2.65;;
71048;SDS011;58704;53.358;-6.238;2022-09-09T19:58:57;11.60;;;3.85;;
71048;SDS011;58704;53.358;-6.238;2022-09-09T20:01:27;8.30;;;3.85;;
71048;SDS011;58704;53.358;-6.238;2022-09-09T20:03:56;9.80;;;3.80;;
71048;SDS011;58704;53.358;-6.238;2022-09-09T20:06:23;8.25;;;4.00;;
71048;SDS011;58704;53.358;-6.238;2022-09-09T20:08:53;9.95;;;3.60;;
71048;SDS011;58704;53.358;-6.238;2022-09-09T20:11:19;7.60;;;3.78;;
71048;SDS011;58704;53.358;-6.238;2022-09-09T20:13:44;7.63;;;3.30;;
71048;SDS011;58704;53.358;-6.238;2022-09-09T20:18:39;10.75;;;3.70;;
71048;SDS011;58704;53.358;-6.238;2022-09-09T20:21:19;11.65;;;3.92;;
71048;SDS011;58704;53.358;-6.238;2022-09-09T20:23:47;9.20;;;3.97;;
71048;SDS011;58704;53.358;-6.238;2022-09-09T20:26:15;10.90;;;4.25;;
71048;SDS011;58704;53.358;-6.238;2022-09-09T20:28:42;8.40;;;3.83;;
71048;SDS011;58704;53.358;-6.238;2022-09-09T20:31:10;10.43;;;4.25;;
71048;SDS011;58704;53.358;-6.238;2022-09-09T20:33:38;7.10;;;3.72;;
71048;SDS011;58704;53.358;-6.238;2022-09-09T20:36:24;10.07;;;4.00;;
71048;SDS011;58704;53.358;-6.238;2022-09-09T20:38:52;9.82;;;3.72;;
71048;SDS011;58704;53.358;-6.238;2022-09-09T20:41:23;8.82;;;4.05;;
71048;SDS011;58704;53.358;-6.238;2022-09-09T20:43:59;6.65;;;3.70;;
71048;SDS011;58704;53.358;-6.238;2022-09-09T20:46:34;11.85;;;4.25;;
71048;SDS011;58704;53.358;-6.238;2022-09-09T20:49:00;8.33;;;3.70;;
71048;SDS011;58704;53.358;-6.238;2022-09-09T20:51:26;9.20;;;4.38;;
71048;SDS011;58704;53.358;-6.238;2022-09-09T20:53:57;10.20;;;3.78;;
71048;SDS011;58704;53.358;-6.238;2022-09-09T20:56:27;8.45;;;4.07;;
71048;SDS011;58704;53.358;-6.238;2022-09-09T20:58:56;11.15;;;4.85;;
71048;SDS011;58704;53.358;-6.238;2022-09-09T21:01:21;12.23;;;5.20;;
71048;SDS011;58704;53.358;-6.238;2022-09-09T21:03:47;9.07;;;4.10;;
71048;SDS011;58704;53.358;-6.238;2022-09-09T21:06:13;8.60;;;3.80;;
71048;SDS011;58704;53.358;-6.238;2022-09-09T21:08:39;8.13;;;3.77;;
71048;SDS011;58704;53.358;-6.238;2022-09-09T21:11:05;7.18;;;3.72;;
71048;SDS011;58704;53.358;-6.238;2022-09-09T21:13:31;9.85;;;3.60;;
71048;SDS011;58704;53.358;-6.238;2022-09-09T21:15:57;10.32;;;3.60;;
71048;SDS011;58704;53.358;-6.238;2022-09-09T21:18:23;5.33;;;3.37;;
71048;SDS011;58704;53.358;-6.238;2022-09-09T21:20:49;6.57;;;3.58;;
71048;SDS011;58704;53.358;-6.238;2022-09-09T21:23:15;8.32;;;3.70;;
71048;SDS011;58704;53.358;-6.238;2022-09-09T21:25:41;10.50;;;4.07;;
71048;SDS011;58704;53.358;-6.238;2022-09-09T21:28:07;8.82;;;4.50;;
71048;SDS011;58704;53.358;-6.238;2022-09-09T21:30:34;8.25;;;4.50;;
71048;SDS011;58704;53.358;-6.238;2022-09-09T21:33:00;10.07;;;4.38;;
71048;SDS011;58704;53.358;-6.238;2022-09-09T21:35:26;11.82;;;4.20;;
71048;SDS011;58704;53.358;-6.238;2022-09-09T21:37:52;10.83;;;3.83;;
71048;SDS011;58704;53.358;-6.238;2022-09-09T21:40:18;8.90;;;3.13;;
71048;SDS011;58704;53.358;-6.238;2022-09-09T21:42:44;9.50;;;3.65;;
71048;SDS011;58704;53.358;-6.238;2022-09-09T21:45:10;6.40;;;3.80;;
71048;SDS011;58704;53.358;-6.238;2022-09-09T21:47:36;7.80;;;3.27;;
71048;SDS011;58704;53.358;-6.238;2022-09-09T21:50:01;8.10;;;3.60;;
71048;SDS011;58704;53.358;-6.238;2022-09-09T21:52:27;12.65;;;3.45;;
71048;SDS011;58704;53.358;-6.238;2022-09-09T21:54:52;10.23;;;4.23;;
71048;SDS011;58704;53.358;-6.238;2022-09-09T21:57:18;10.05;;;3.65;;
71048;SDS011;58704;53.358;-6.238;2022-09-09T21:59:43;8.20;;;4.10;;
71048;SDS011;58704;53.358;-6.238;2022-09-09T22:02:09;6.83;;;4.00;;
71048;SDS011;58704;53.358;-6.238;2022-09-09T22:04:37;12.30;;;4.73;;
71048;SDS011;58704;53.358;-6.238;2022-09-09T22:07:04;8.63;;;4.45;;
71048;SDS011;58704;53.358;-6.238;2022-09-09T22:09:31;11.43;;;3.78;;